createdAt,value
2022-11-01T00:02:01.937Z,100255.25
2022-11-01T00:05:06.571Z,100242.28
2022-11-01T00:08:10.633Z,100241.84
2022-11-01T00:11:18.462Z,100240.56
2022-11-01T00:14:22.862Z,100242.66
2022-11-01T00:17:26.895Z,100239.97
2022-11-01T00:20:30.939Z,100237.59
2022-11-01T00:23:34.959Z,100235.84
2022-11-01T00:26:40.605Z,100240.47
2022-11-01T00:29:44.694Z,100240.44
2022-11-01T00:32:48.900Z,100240.72
2022-11-01T00:35:53.179Z,100243.66
2022-11-01T00:38:57.265Z,100237.03
2022-11-01T00:42:02.875Z,100242.94
2022-11-01T00:45:07.814Z,100233.97
2022-11-01T00:48:11.930Z,100237.41
2022-11-01T00:51:15.979Z,100236.44
2022-11-01T00:54:20.143Z,100239.69
2022-11-01T00:57:25.805Z,100240.16
2022-11-01T01:00:29.894Z,100237.03
2022-11-01T01:03:34.092Z,100242.97
2022-11-01T01:06:38.017Z,100234.59
2022-11-01T01:09:42.153Z,100228.63
2022-11-01T01:12:47.701Z,100225.06
2022-11-01T01:15:51.687Z,100230.41
2022-11-01T01:18:56.384Z,100225.47
2022-11-01T01:22:01.418Z,100233.19
2022-11-01T01:25:05.935Z,100234.00
2022-11-01T01:28:11.510Z,100231.47
2022-11-01T01:31:16.072Z,100233.94
2022-11-01T01:34:20.762Z,100233.22
2022-11-01T01:37:24.802Z,100223.75
2022-11-01T01:40:28.854Z,100225.34
2022-11-01T01:43:44.704Z,100227.34
2022-11-01T01:46:48.805Z,100229.69
2022-11-01T01:49:57.173Z,100235.56
2022-11-01T01:53:07.152Z,100234.81
2022-11-01T01:56:14.137Z,100241.31
2022-11-01T01:59:19.792Z,100239.59
2022-11-01T02:02:24.011Z,100238.50
2022-11-01T02:05:39.684Z,100243.31
2022-11-01T02:08:46.445Z,100241.69
2022-11-01T02:11:50.375Z,100243.53
2022-11-01T02:14:56.200Z,100251.84
2022-11-01T02:18:11.910Z,100257.56
2022-11-01T02:21:52.463Z,100253.28
2022-11-01T02:25:25.814Z,100260.59
2022-11-01T02:28:49.119Z,100258.09
2022-11-01T02:32:13.378Z,100264.84
2022-11-01T02:35:25.324Z,100258.00
2022-11-01T02:38:36.761Z,100263.50
2022-11-01T02:41:46.847Z,100262.47
2022-11-01T02:44:56.998Z,100262.91
2022-11-01T02:48:04.044Z,100271.69
2022-11-01T02:51:08.593Z,100269.25
2022-11-01T02:54:22.412Z,100268.75
2022-11-01T02:57:32.904Z,100268.41
2022-11-01T03:00:38.875Z,100273.13
2022-11-01T03:03:47.490Z,100269.00
2022-11-01T03:06:56.002Z,100265.38
2022-11-01T03:10:00.596Z,100274.81
2022-11-01T03:13:15.194Z,100280.69
2022-11-01T03:16:24.602Z,100278.25
2022-11-01T03:19:40.208Z,100267.41
2022-11-01T03:22:48.810Z,100271.38
2022-11-01T03:25:57.573Z,100269.97
2022-11-01T03:29:05.642Z,100278.97
2022-11-01T03:32:11.253Z,100271.63
2022-11-01T03:35:20.358Z,100277.75
2022-11-01T03:38:31.994Z,100282.25
2022-11-01T03:41:41.064Z,100285.50
2022-11-01T03:44:48.873Z,100285.34
2022-11-01T03:47:53.077Z,100284.88
2022-11-01T03:50:58.691Z,100287.66
2022-11-01T03:54:02.576Z,100296.69
2022-11-01T03:57:06.643Z,100290.47
2022-11-01T04:00:12.325Z,100281.91
2022-11-01T04:03:16.410Z,100291.44
2022-11-01T04:06:22.083Z,100286.69
2022-11-01T04:09:26.201Z,100287.88
2022-11-01T04:12:30.233Z,100289.34
2022-11-01T04:15:51.404Z,100288.53
2022-11-01T04:19:12.769Z,100289.19
2022-11-01T04:22:20.697Z,100285.88
2022-11-01T04:25:27.797Z,100286.06
2022-11-01T04:28:32.073Z,100286.22
2022-11-01T04:31:38.340Z,100293.28
2022-11-01T04:34:45.463Z,100289.66
2022-11-01T04:37:57.509Z,100290.00
2022-11-01T04:41:01.718Z,100288.88
2022-11-01T04:44:06.088Z,100295.44
2022-11-01T04:47:10.395Z,100291.50
2022-11-01T04:50:14.595Z,100301.88
2022-11-01T04:53:20.377Z,100295.94
2022-11-01T04:56:24.467Z,100299.75
2022-11-01T04:59:28.685Z,100296.28
2022-11-01T05:02:32.855Z,100301.38
2022-11-01T05:05:38.316Z,100302.53
2022-11-01T05:08:44.078Z,100306.97
2022-11-01T05:11:48.450Z,100307.13
2022-11-01T05:14:56.689Z,100307.31
2022-11-01T05:18:02.225Z,100316.53
2022-11-01T05:21:06.465Z,100312.91
2022-11-01T05:24:12.125Z,100317.53
2022-11-01T05:27:16.444Z,100322.81
2022-11-01T05:30:20.575Z,100327.06
2022-11-01T05:33:24.812Z,100320.97
2022-11-01T05:36:28.950Z,100321.66
2022-11-01T05:39:34.638Z,100327.06
2022-11-01T05:42:40.629Z,100332.16
2022-11-01T05:45:44.879Z,100333.97
2022-11-01T05:48:49.036Z,100336.66
2022-11-01T05:51:53.145Z,100339.94
2022-11-01T05:54:59.095Z,100349.81
2022-11-01T05:58:03.309Z,100356.53
2022-11-01T06:01:09.377Z,100350.78
2022-11-01T06:04:13.692Z,100350.00
2022-11-01T06:07:18.447Z,100347.44
2022-11-01T06:10:24.058Z,100350.28
2022-11-01T06:13:28.308Z,100363.69
2022-11-01T06:16:32.475Z,100359.50
2022-11-01T06:19:36.816Z,100360.69
2022-11-01T06:22:41.375Z,100359.50
2022-11-01T06:25:47.278Z,100362.09
2022-11-01T06:28:51.375Z,100363.06
2022-11-01T06:31:55.588Z,100363.34
2022-11-01T06:34:59.738Z,100361.63
2022-11-01T06:38:05.047Z,100358.56
2022-11-01T06:41:10.860Z,100366.25
2022-11-01T06:44:15.059Z,100361.47
2022-11-01T06:47:19.318Z,100356.69
2022-11-01T06:50:23.515Z,100363.13
2022-11-01T06:53:27.819Z,100368.75
2022-11-01T06:56:33.429Z,100369.25
2022-11-01T06:59:37.639Z,100365.75
2022-11-01T07:02:41.874Z,100364.50
2022-11-01T07:05:46.095Z,100359.13
2022-11-01T07:08:50.205Z,100359.88
2022-11-01T07:11:55.908Z,100359.06
2022-11-01T07:15:00.199Z,100363.09
2022-11-01T07:18:06.794Z,100362.41
2022-11-01T07:21:11.583Z,100358.97
2022-11-01T07:24:15.970Z,100362.44
2022-11-01T07:27:21.736Z,100361.66
2022-11-01T07:30:26.425Z,100366.19
2022-11-01T07:33:30.695Z,100361.03
2022-11-01T07:36:35.162Z,100366.53
2022-11-01T07:39:39.538Z,100361.59
2022-11-01T07:42:50.045Z,100355.81
2022-11-01T07:45:54.266Z,100359.66
2022-11-01T07:49:00.766Z,100357.63
2022-11-01T07:52:05.625Z,100355.97
2022-11-01T07:55:10.966Z,100357.28
2022-11-01T07:58:17.800Z,100359.28
2022-11-01T08:01:24.896Z,100354.78
2022-11-01T08:04:33.589Z,100350.69
2022-11-01T08:07:40.459Z,100350.91
2022-11-01T08:10:46.831Z,100351.63
2022-11-01T08:13:52.637Z,100349.50
2022-11-01T08:17:02.021Z,100346.09
2022-11-01T08:20:14.046Z,100346.47
2022-11-01T08:23:19.034Z,100339.00
2022-11-01T08:26:24.072Z,100340.81
2022-11-01T08:29:32.769Z,100336.91
2022-11-01T08:32:40.880Z,100337.69
2022-11-01T08:35:50.691Z,100333.75
2022-11-01T08:38:58.803Z,100330.94
2022-11-01T08:42:06.056Z,100327.75
2022-11-01T08:45:12.455Z,100330.03
2022-11-01T08:48:21.681Z,100327.41
2022-11-01T08:54:44.923Z,100328.41
2022-11-01T08:57:49.758Z,100328.03
2022-11-01T09:01:06.322Z,100324.47
2022-11-01T09:04:21.666Z,100320.31
2022-11-01T09:07:30.289Z,100315.78
2022-11-01T09:10:34.574Z,100314.53
2022-11-01T09:13:38.889Z,100312.56
2022-11-01T09:16:44.650Z,100310.53
2022-11-01T09:19:48.928Z,100308.09
2022-11-01T09:22:53.786Z,100297.56
2022-11-01T09:26:04.217Z,100305.34
2022-11-01T09:29:08.767Z,100291.75
2022-11-01T09:32:14.507Z,100295.72
2022-11-01T09:35:19.159Z,100289.19
2022-11-01T09:38:23.373Z,100284.06
2022-11-01T09:41:34.861Z,100278.38
2022-11-01T09:44:46.243Z,100280.22
2022-11-01T09:47:55.200Z,100276.84
2022-11-01T09:51:01.134Z,100273.94
2022-11-01T09:54:07.840Z,100273.69
2022-11-01T09:57:19.880Z,100267.91
2022-11-01T10:00:24.284Z,100262.06
2022-11-01T10:03:42.375Z,100255.41
2022-11-01T10:06:53.774Z,100250.09
2022-11-01T10:10:06.903Z,100250.31
2022-11-01T10:13:36.942Z,100250.16
2022-11-01T10:16:43.033Z,100244.22
2022-11-01T10:19:51.533Z,100233.88
2022-11-01T10:22:55.761Z,100232.22
2022-11-01T10:25:59.846Z,100234.94
2022-11-01T10:29:09.376Z,100229.88
2022-11-01T10:32:24.669Z,100228.63
2022-11-01T10:35:35.669Z,100231.91
2022-11-01T10:42:11.454Z,100213.63
2022-11-01T10:45:20.948Z,100202.91
2022-11-01T10:48:32.240Z,100202.75
2022-11-01T10:51:38.461Z,100197.81
2022-11-01T10:54:45.271Z,100195.34
2022-11-01T10:57:54.594Z,100192.91
2022-11-01T11:00:59.039Z,100185.16
2022-11-01T11:04:06.488Z,100180.94
2022-11-01T11:07:19.917Z,100171.22
2022-11-01T11:10:30.714Z,100167.88
2022-11-01T11:13:36.879Z,100166.66
2022-11-01T11:16:46.163Z,100160.81
2022-11-01T11:19:54.043Z,100160.94
2022-11-01T11:23:04.561Z,100158.91
2022-11-01T11:26:16.776Z,100152.66
2022-11-01T11:29:37.434Z,100148.84
2022-11-01T11:32:49.819Z,100145.69
2022-11-01T11:36:01.500Z,100133.84
2022-11-01T11:39:07.730Z,100132.53
2022-11-01T11:42:16.572Z,100132.72
2022-11-01T11:45:24.722Z,100125.25
2022-11-01T11:48:29.064Z,100119.19
2022-11-01T11:51:37.853Z,100125.97
2022-11-01T11:54:45.280Z,100119.47
2022-11-01T11:57:53.804Z,100118.25
2022-11-01T12:01:04.573Z,100119.28
2022-11-01T12:04:11.366Z,100112.59
2022-11-01T12:07:33.510Z,100107.22
2022-11-01T12:10:41.410Z,100106.81
2022-11-01T12:13:49.394Z,100107.47
2022-11-01T12:16:53.741Z,100095.00
2022-11-01T12:20:10.030Z,100095.34
2022-11-01T12:23:18.890Z,100094.59
2022-11-01T12:26:26.001Z,100096.50
2022-11-01T12:29:35.301Z,100092.00
2022-11-01T12:32:49.152Z,100088.84
2022-11-01T12:35:56.104Z,100090.81
2022-11-01T12:39:09.614Z,100092.94
2022-11-01T12:42:21.425Z,100084.88
2022-11-01T12:45:32.243Z,100083.41
2022-11-01T12:48:42.310Z,100083.19
2022-11-01T12:51:50.454Z,100081.00
2022-11-01T12:55:05.771Z,100079.97
2022-11-01T12:58:16.266Z,100075.78
2022-11-01T13:01:31.125Z,100073.66
2022-11-01T13:04:39.162Z,100076.06
2022-11-01T13:07:57.544Z,100076.44
2022-11-01T13:11:15.350Z,100078.88
2022-11-01T13:14:38.181Z,100075.44
2022-11-01T13:17:49.959Z,100072.31
2022-11-01T13:21:00.020Z,100068.06
2022-11-01T13:24:12.590Z,100068.44
2022-11-01T13:27:22.934Z,100073.16
2022-11-01T13:30:28.780Z,100068.50
2022-11-01T13:33:41.140Z,100064.03
2022-11-01T13:36:50.160Z,100063.22
2022-11-01T13:40:10.194Z,100067.28
2022-11-01T13:43:17.340Z,100056.25
2022-11-01T13:46:59.334Z,100057.41
2022-11-01T13:50:32.944Z,100062.31
2022-11-01T13:53:43.694Z,100062.50
2022-11-01T13:56:56.591Z,100061.97
2022-11-01T14:00:02.585Z,100055.38
2022-11-01T14:03:23.319Z,100060.31
2022-11-01T14:06:31.606Z,100055.22
2022-11-01T14:09:45.301Z,100047.00
2022-11-01T14:13:17.203Z,100045.47
2022-11-01T14:16:23.211Z,100046.66
2022-11-01T14:19:27.657Z,100042.97
2022-11-01T14:22:33.865Z,100045.56
2022-11-01T14:25:38.030Z,100038.16
2022-11-01T14:28:46.790Z,100045.59
2022-11-01T14:31:54.095Z,100036.41
2022-11-01T14:35:10.019Z,100043.72
2022-11-01T14:38:16.231Z,100047.44
2022-11-01T14:41:21.832Z,100029.19
2022-11-01T14:44:33.713Z,100034.69
2022-11-01T14:47:43.770Z,100028.63
2022-11-01T14:50:54.072Z,100023.66
2022-11-01T14:54:03.670Z,100028.84
2022-11-01T14:57:21.993Z,100029.16
2022-11-01T15:00:32.520Z,100023.91
2022-11-01T15:03:36.643Z,100027.41
2022-11-01T15:06:45.082Z,100024.72
2022-11-01T15:10:00.591Z,100022.69
2022-11-01T15:13:05.121Z,100022.06
2022-11-01T15:16:16.136Z,100031.72
2022-11-01T15:19:28.800Z,100023.88
2022-11-01T15:22:34.921Z,100030.91
2022-11-01T15:25:41.231Z,100026.69
2022-11-01T15:28:51.530Z,100023.38
2022-11-01T15:32:00.374Z,100025.09
2022-11-01T15:35:18.140Z,100027.00
2022-11-01T15:38:22.531Z,100028.53
2022-11-01T15:41:29.673Z,100031.28
2022-11-01T15:44:34.044Z,100041.84
2022-11-01T15:47:45.639Z,100039.53
2022-11-01T15:50:53.673Z,100044.25
2022-11-01T15:54:03.420Z,100040.25
2022-11-01T15:57:15.021Z,100049.44
2022-11-01T16:00:22.543Z,100054.00
2022-11-01T16:03:32.460Z,100050.81
2022-11-01T16:06:42.355Z,100052.94
2022-11-01T16:09:49.003Z,100057.50
2022-11-01T16:12:54.454Z,100056.50
2022-11-01T16:16:06.700Z,100060.81
2022-11-01T16:19:31.073Z,100064.19
2022-11-01T16:22:38.286Z,100062.97
2022-11-01T16:25:42.953Z,100066.31
2022-11-01T16:28:48.041Z,100065.94
2022-11-01T16:32:09.766Z,100069.84
2022-11-01T16:35:32.972Z,100071.09
2022-11-01T16:38:45.229Z,100071.72
2022-11-01T16:41:49.955Z,100071.53
2022-11-01T16:44:57.216Z,100068.09
2022-11-01T16:48:01.760Z,100072.38
2022-11-01T16:51:08.091Z,100082.59
2022-11-01T16:54:12.902Z,100082.66
2022-11-01T16:57:25.594Z,100089.00
2022-11-01T17:00:29.866Z,100084.72
2022-11-01T17:03:34.201Z,100085.34
2022-11-01T17:06:39.860Z,100085.78
2022-11-01T17:09:44.320Z,100090.88
2022-11-01T17:12:48.921Z,100092.75
2022-11-01T17:15:54.494Z,100094.81
2022-11-01T17:19:00.435Z,100093.00
2022-11-01T17:22:10.434Z,100095.84
2022-11-01T17:25:20.459Z,100095.66
2022-11-01T17:28:25.522Z,100091.75
2022-11-01T17:31:30.761Z,100106.47
2022-11-01T17:34:35.094Z,100097.28
2022-11-01T17:37:41.505Z,100102.00
2022-11-01T17:40:47.043Z,100108.53
2022-11-01T17:43:51.353Z,100107.69
2022-11-01T17:46:55.713Z,100107.09
2022-11-01T17:50:00.144Z,100114.03
2022-11-01T17:53:06.173Z,100113.44
2022-11-01T17:56:16.021Z,100114.25
2022-11-01T17:59:20.500Z,100107.28
2022-11-01T18:02:24.845Z,100122.22
2022-11-01T18:05:29.201Z,100122.59
2022-11-01T18:08:36.396Z,100118.50
2022-11-01T18:11:47.701Z,100121.75
2022-11-01T18:14:59.514Z,100124.38
2022-11-01T18:18:22.810Z,100130.88
2022-11-01T18:21:33.896Z,100133.53
2022-11-01T18:24:46.841Z,100126.53
2022-11-01T18:27:51.594Z,100124.72
2022-11-01T18:30:58.516Z,100129.00
2022-11-01T18:34:09.361Z,100137.38
2022-11-01T18:37:23.412Z,100128.59
2022-11-01T18:40:36.426Z,100133.50
2022-11-01T18:43:40.680Z,100130.00
2022-11-01T18:46:51.566Z,100131.41
2022-11-01T18:50:05.635Z,100139.38
2022-11-01T18:53:15.844Z,100142.84
2022-11-01T18:56:25.619Z,100141.59
2022-11-01T18:59:33.106Z,100145.47
2022-11-01T19:02:37.309Z,100138.31
2022-11-01T19:05:43.097Z,100140.31
2022-11-01T19:08:53.347Z,100143.94
2022-11-01T19:12:03.994Z,100134.03
2022-11-01T19:15:22.453Z,100137.59
2022-11-01T19:18:27.247Z,100136.06
2022-11-01T19:21:37.544Z,100132.16
2022-11-01T19:24:41.815Z,100138.56
2022-11-01T19:27:48.331Z,100138.59
2022-11-01T19:30:54.006Z,100148.78
2022-11-01T19:34:00.921Z,100146.50
2022-11-01T19:37:16.644Z,100152.78
2022-11-01T19:40:30.185Z,100152.63
2022-11-01T19:43:35.897Z,100147.72
2022-11-01T19:46:40.221Z,100157.66
2022-11-01T19:49:45.193Z,100157.88
2022-11-01T19:52:49.864Z,100161.13
2022-11-01T19:55:56.582Z,100169.31
2022-11-01T19:59:05.139Z,100164.53
2022-11-01T20:02:18.866Z,100172.78
2022-11-01T20:05:30.151Z,100167.38
2022-11-01T20:08:35.711Z,100161.84
2022-11-01T20:11:40.201Z,100162.81
2022-11-01T20:14:46.121Z,100168.06
2022-11-01T20:17:50.960Z,100169.41
2022-11-01T20:20:56.247Z,100159.63
2022-11-01T20:24:04.264Z,100172.97
2022-11-01T20:27:09.029Z,100172.88
2022-11-01T20:30:17.735Z,100171.66
2022-11-01T20:33:22.401Z,100175.38
2022-11-01T20:36:26.713Z,100178.78
2022-11-01T20:39:30.922Z,100175.78
2022-11-01T20:42:44.334Z,100175.94
2022-11-01T20:45:50.092Z,100168.69
2022-11-01T20:48:54.549Z,100176.16
2022-11-01T20:52:13.451Z,100173.19
2022-11-01T20:55:23.301Z,100172.97
2022-11-01T20:58:29.202Z,100169.91
2022-11-01T21:01:34.966Z,100167.91
2022-11-01T21:04:40.236Z,100170.81
2022-11-01T21:07:47.845Z,100174.00
2022-11-01T21:10:57.874Z,100171.19
2022-11-01T21:14:02.662Z,100172.31
2022-11-01T21:17:18.583Z,100172.03
2022-11-01T21:20:25.700Z,100167.94
2022-11-01T21:23:34.964Z,100169.84
2022-11-01T21:26:42.343Z,100162.81
2022-11-01T21:29:49.096Z,100167.78
2022-11-01T21:32:54.816Z,100162.25
2022-11-01T21:35:59.116Z,100158.63
2022-11-01T21:39:05.007Z,100156.00
2022-11-01T21:42:30.186Z,100160.25
2022-11-01T21:45:35.134Z,100154.97
2022-11-01T21:48:40.916Z,100158.25
2022-11-01T21:51:45.015Z,100159.25
2022-11-01T21:54:50.143Z,100155.31
2022-11-01T21:57:54.256Z,100149.75
2022-11-01T22:00:58.830Z,100155.53
2022-11-01T22:04:04.768Z,100160.16
2022-11-01T22:07:10.416Z,100164.19
2022-11-01T22:10:15.366Z,100163.44
2022-11-01T22:13:21.305Z,100154.06
2022-11-01T22:16:25.638Z,100148.41
2022-11-01T22:19:31.388Z,100159.53
2022-11-01T22:22:35.766Z,100157.06
2022-11-01T22:25:41.931Z,100156.31
2022-11-01T22:28:46.166Z,100148.44
2022-11-01T22:31:50.366Z,100152.91
2022-11-01T22:34:56.268Z,100146.91
2022-11-01T22:38:03.116Z,100145.84
2022-11-01T22:41:13.567Z,100147.94
2022-11-01T22:44:20.607Z,100147.75
2022-11-01T22:47:32.047Z,100140.72
2022-11-01T22:50:38.796Z,100145.13
2022-11-01T22:53:43.244Z,100139.06
2022-11-01T22:56:47.653Z,100134.53
2022-11-01T22:59:54.023Z,100129.03
2022-11-01T23:03:04.283Z,100127.94
2022-11-01T23:06:34.645Z,100125.13
2022-11-01T23:09:40.894Z,100114.28
2022-11-01T23:13:02.280Z,100116.72
2022-11-01T23:16:18.777Z,100122.84
2022-11-01T23:19:22.953Z,100119.00
2022-11-01T23:22:33.233Z,100120.63
2022-11-01T23:25:37.344Z,100121.75
2022-11-01T23:28:43.506Z,100120.00
2022-11-01T23:31:47.483Z,100114.72
2022-11-01T23:34:52.045Z,100110.63
2022-11-01T23:37:59.934Z,100114.28
2022-11-01T23:41:04.863Z,100120.75
2022-11-01T23:44:20.855Z,100121.56
2022-11-01T23:47:28.303Z,100119.81
2022-11-01T23:50:35.954Z,100115.16
2022-11-01T23:53:47.108Z,100114.47
2022-11-01T23:56:51.147Z,100115.06
2022-11-01T23:59:55.343Z,100120.63
